createdAt,value
2023-01-07T00:02:00.756Z,9.55
2023-01-07T00:04:29.753Z,9.53
2023-01-07T00:06:56.091Z,9.52
2023-01-07T00:09:25.668Z,9.54
2023-01-07T00:11:52.127Z,9.57
2023-01-07T00:14:21.023Z,9.54
2023-01-07T00:16:49.833Z,9.53
2023-01-07T00:19:16.380Z,9.52
2023-01-07T00:21:43.071Z,9.49
2023-01-07T00:24:10.977Z,9.45
2023-01-07T00:26:43.956Z,9.44
2023-01-07T00:29:10.434Z,9.42
2023-01-07T00:31:39.449Z,9.37
2023-01-07T00:34:08.007Z,9.40
2023-01-07T00:36:36.136Z,9.36
2023-01-07T00:39:14.282Z,9.32
2023-01-07T00:41:40.823Z,9.30
2023-01-07T00:44:08.218Z,9.29
2023-01-07T00:46:35.004Z,9.28
2023-01-07T00:49:01.983Z,9.28
2023-01-07T00:51:28.497Z,9.28
2023-01-07T00:53:54.971Z,9.32
2023-01-07T00:56:23.801Z,9.29
2023-01-07T00:58:50.204Z,9.30
2023-01-07T01:01:19.204Z,9.29
2023-01-07T01:03:45.801Z,9.27
2023-01-07T01:06:16.586Z,9.27
2023-01-07T01:08:47.217Z,9.28
2023-01-07T01:11:15.950Z,9.26
2023-01-07T01:13:43.818Z,9.29
2023-01-07T01:16:13.576Z,9.25
2023-01-07T01:18:46.255Z,9.23
2023-01-07T01:21:15.270Z,9.21
2023-01-07T01:23:42.774Z,9.26
2023-01-07T01:26:13.855Z,9.20
2023-01-07T01:28:42.613Z,9.21
2023-01-07T01:31:14.869Z,9.22
2023-01-07T01:33:41.274Z,9.20
2023-01-07T01:36:11.896Z,9.20
2023-01-07T01:38:38.861Z,9.23
2023-01-07T01:41:06.215Z,9.21
2023-01-07T01:43:44.376Z,9.21
2023-01-07T01:46:19.675Z,9.20
2023-01-07T01:49:03.627Z,9.17
2023-01-07T01:51:36.937Z,9.17
2023-01-07T01:54:07.221Z,9.17
2023-01-07T01:56:36.892Z,9.19
2023-01-07T01:59:08.459Z,9.19
2023-01-07T02:01:36.864Z,9.17
2023-01-07T02:04:19.185Z,9.18
2023-01-07T02:07:07.385Z,9.18
2023-01-07T02:09:37.235Z,9.19
2023-01-07T02:12:31.138Z,9.22
2023-01-07T02:15:16.568Z,9.23
2023-01-07T02:18:01.276Z,9.25
2023-01-07T02:20:45.297Z,9.25
2023-01-07T02:23:40.452Z,9.23
2023-01-07T02:26:50.164Z,9.24
2023-01-07T02:29:36.617Z,9.24
2023-01-07T02:32:34.366Z,9.27
2023-01-07T02:35:29.870Z,9.26
2023-01-07T02:38:12.692Z,9.25
2023-01-07T02:40:43.042Z,9.25
2023-01-07T02:43:22.150Z,9.25
2023-01-07T02:46:13.175Z,9.24
2023-01-07T02:48:41.049Z,9.23
2023-01-07T02:51:10.000Z,9.23
2023-01-07T02:53:36.939Z,9.22
2023-01-07T02:56:25.153Z,9.21
2023-01-07T02:59:16.183Z,9.18
2023-01-07T03:02:24.224Z,9.18
2023-01-07T03:05:26.548Z,9.17
2023-01-07T03:07:55.892Z,9.18
2023-01-07T03:10:30.491Z,9.19
2023-01-07T03:13:12.641Z,9.17
2023-01-07T03:15:44.755Z,9.17
2023-01-07T03:18:29.036Z,9.17
2023-01-07T03:21:03.651Z,9.16
2023-01-07T03:23:31.066Z,9.16
2023-01-07T03:26:03.026Z,9.15
2023-01-07T03:28:36.110Z,9.15
2023-01-07T03:31:04.802Z,9.14
2023-01-07T03:33:40.127Z,9.14
2023-01-07T03:36:11.269Z,9.15
2023-01-07T03:38:38.568Z,9.14
2023-01-07T03:41:05.944Z,9.18
2023-01-07T03:43:32.425Z,9.17
2023-01-07T03:46:01.380Z,9.15
2023-01-07T03:48:28.230Z,9.14
2023-01-07T03:50:57.010Z,9.12
2023-01-07T03:53:25.598Z,9.11
2023-01-07T03:55:51.999Z,9.11
2023-01-07T03:58:18.390Z,9.10
2023-01-07T04:00:44.853Z,9.07
2023-01-07T04:03:12.625Z,9.09
2023-01-07T04:05:39.108Z,9.06
2023-01-07T04:08:05.473Z,9.05
2023-01-07T04:10:37.170Z,9.07
2023-01-07T04:13:03.503Z,9.04
2023-01-07T04:15:29.856Z,9.04
2023-01-07T04:17:56.654Z,9.04
2023-01-07T04:20:22.999Z,9.05
2023-01-07T04:22:49.381Z,9.03
2023-01-07T04:25:16.320Z,9.03
2023-01-07T04:27:42.732Z,9.03
2023-01-07T04:30:09.669Z,9.03
2023-01-07T04:32:36.964Z,9.04
2023-01-07T04:35:06.019Z,9.04
2023-01-07T04:37:32.403Z,9.04
2023-01-07T04:39:58.799Z,9.06
2023-01-07T04:42:27.412Z,9.05
2023-01-07T04:44:56.398Z,9.07
2023-01-07T04:47:24.219Z,9.05
2023-01-07T04:49:53.219Z,9.04
2023-01-07T04:52:19.580Z,9.03
2023-01-07T04:54:46.012Z,9.06
2023-01-07T04:57:12.373Z,9.08
2023-01-07T04:59:38.798Z,9.06
2023-01-07T05:02:06.877Z,9.07
2023-01-07T05:04:33.488Z,9.06
2023-01-07T05:06:59.935Z,9.07
2023-01-07T05:09:28.774Z,9.06
2023-01-07T05:11:55.166Z,9.05
2023-01-07T05:14:21.663Z,9.07
2023-01-07T05:16:50.671Z,9.07
2023-01-07T05:19:17.261Z,9.10
2023-01-07T05:21:43.636Z,9.11
2023-01-07T05:24:10.171Z,9.14
2023-01-07T05:26:36.629Z,9.13
2023-01-07T05:29:05.158Z,9.11
2023-01-07T05:31:31.549Z,9.12
2023-01-07T05:33:58.060Z,9.12
2023-01-07T05:36:27.116Z,9.11
2023-01-07T05:38:53.523Z,9.13
2023-01-07T05:41:20.056Z,9.08
2023-01-07T05:43:46.423Z,9.08
2023-01-07T05:46:13.171Z,9.08
2023-01-07T05:48:39.583Z,9.09
2023-01-07T05:51:06.185Z,9.09
2023-01-07T05:53:32.734Z,9.09
2023-01-07T05:56:00.294Z,9.08
2023-01-07T05:58:27.962Z,9.07
2023-01-07T06:00:55.640Z,9.04
2023-01-07T06:03:22.582Z,9.07
2023-01-07T06:05:49.228Z,9.09
2023-01-07T06:08:15.676Z,9.13
2023-01-07T06:10:44.903Z,9.10
2023-01-07T06:13:11.347Z,9.08
2023-01-07T06:15:39.168Z,9.07
2023-01-07T06:18:05.637Z,9.05
2023-01-07T06:20:34.743Z,9.05
2023-01-07T06:23:04.319Z,9.05
2023-01-07T06:25:30.882Z,9.02
2023-01-07T06:27:58.363Z,9.02
2023-01-07T06:30:25.261Z,9.01
2023-01-07T06:32:54.264Z,9.02
2023-01-07T06:35:20.752Z,9.02
2023-01-07T06:37:47.232Z,9.00
2023-01-07T06:40:16.086Z,8.99
2023-01-07T06:42:42.446Z,8.98
2023-01-07T06:45:11.023Z,9.01
2023-01-07T06:47:37.474Z,8.97
2023-01-07T06:50:04.162Z,8.95
2023-01-07T06:52:31.394Z,8.96
2023-01-07T06:54:57.831Z,8.95
2023-01-07T06:57:29.029Z,8.97
2023-01-07T06:59:55.407Z,8.94
2023-01-07T07:02:26.394Z,8.95
2023-01-07T07:04:53.749Z,8.94
2023-01-07T07:07:20.656Z,8.94
2023-01-07T07:09:47.460Z,8.92
2023-01-07T07:12:19.704Z,8.99
2023-01-07T07:14:46.207Z,8.99
2023-01-07T07:17:12.622Z,8.98
2023-01-07T07:19:39.003Z,8.96
2023-01-07T07:22:05.387Z,8.98
2023-01-07T07:24:31.922Z,9.01
2023-01-07T07:27:00.029Z,8.99
2023-01-07T07:29:27.887Z,8.99
2023-01-07T07:31:54.251Z,9.01
2023-01-07T07:34:23.032Z,9.03
2023-01-07T07:36:49.430Z,9.03
2023-01-07T07:39:15.836Z,9.06
2023-01-07T07:41:45.014Z,9.08
2023-01-07T07:44:11.400Z,9.11
2023-01-07T07:46:38.097Z,9.13
2023-01-07T07:49:05.993Z,9.12
2023-01-07T07:51:33.272Z,9.13
2023-01-07T07:53:59.620Z,9.15
2023-01-07T07:56:25.972Z,9.22
2023-01-07T07:58:53.805Z,9.24
2023-01-07T08:01:20.263Z,9.22
2023-01-07T08:03:46.961Z,9.27
2023-01-07T08:06:13.891Z,9.26
2023-01-07T08:08:41.272Z,9.28
2023-01-07T08:11:10.285Z,9.31
2023-01-07T08:13:37.857Z,9.31
2023-01-07T08:16:04.442Z,9.32
2023-01-07T08:18:33.269Z,9.34
2023-01-07T08:20:59.733Z,9.38
2023-01-07T08:23:28.016Z,9.39
2023-01-07T08:25:58.540Z,9.44
2023-01-07T08:28:24.939Z,9.48
2023-01-07T08:30:51.295Z,9.50
2023-01-07T08:33:17.874Z,9.54
2023-01-07T08:35:44.963Z,9.55
2023-01-07T08:38:11.401Z,9.55
2023-01-07T08:40:40.747Z,9.58
2023-01-07T08:43:09.182Z,9.58
2023-01-07T08:45:36.204Z,9.58
2023-01-07T08:48:03.088Z,9.58
2023-01-07T08:50:33.133Z,9.63
2023-01-07T08:53:00.255Z,9.65
2023-01-07T08:55:26.709Z,9.70
2023-01-07T08:57:53.221Z,9.74
2023-01-07T09:00:21.025Z,9.78
2023-01-07T09:02:49.821Z,9.83
2023-01-07T09:05:19.194Z,9.84
2023-01-07T09:07:45.650Z,9.89
2023-01-07T09:10:12.424Z,9.92
2023-01-07T09:12:41.051Z,9.96
2023-01-07T09:15:08.406Z,9.99
2023-01-07T09:17:37.182Z,10.00
2023-01-07T09:20:05.602Z,10.03
2023-01-07T09:22:33.604Z,10.04
2023-01-07T09:24:59.999Z,10.07
2023-01-07T09:27:29.679Z,10.12
2023-01-07T09:29:58.416Z,10.17
2023-01-07T09:32:26.085Z,10.24
2023-01-07T09:34:52.618Z,10.29
2023-01-07T09:37:19.059Z,10.34
2023-01-07T09:39:45.419Z,10.42
2023-01-07T09:42:24.181Z,10.48
2023-01-07T09:45:01.363Z,10.55
2023-01-07T09:47:30.463Z,10.58
2023-01-07T09:50:22.256Z,10.63
2023-01-07T09:52:53.900Z,10.69
2023-01-07T09:55:35.663Z,10.77
2023-01-07T09:58:09.810Z,10.80
2023-01-07T10:00:38.405Z,10.85
2023-01-07T10:03:20.449Z,10.91
2023-01-07T10:06:04.259Z,10.94
2023-01-07T10:08:52.262Z,10.93
2023-01-07T10:11:29.432Z,10.96
2023-01-07T10:14:34.274Z,10.99
2023-01-07T10:17:06.371Z,11.03
2023-01-07T10:19:35.463Z,11.07
2023-01-07T10:22:15.651Z,11.12
2023-01-07T10:24:53.579Z,11.12
2023-01-07T10:27:30.038Z,11.20
2023-01-07T10:30:03.938Z,11.25
2023-01-07T10:32:33.172Z,11.29
2023-01-07T10:35:01.540Z,11.29
2023-01-07T10:37:31.454Z,11.32
2023-01-07T10:40:07.967Z,11.37
2023-01-07T10:42:45.626Z,11.44
2023-01-07T10:45:43.877Z,11.43
2023-01-07T10:48:16.162Z,11.49
2023-01-07T10:50:57.067Z,11.62
2023-01-07T10:53:43.068Z,11.54
2023-01-07T10:56:15.487Z,11.58
2023-01-07T10:58:45.998Z,11.66
2023-01-07T11:01:21.511Z,11.59
2023-01-07T11:03:53.411Z,11.50
2023-01-07T11:06:27.692Z,11.41
2023-01-07T11:08:54.937Z,11.49
2023-01-07T11:11:24.875Z,11.46
2023-01-07T11:14:06.731Z,11.45
2023-01-07T11:16:43.588Z,11.46
2023-01-07T11:19:12.748Z,11.47
2023-01-07T11:21:44.736Z,11.50
2023-01-07T11:24:26.578Z,11.53
2023-01-07T11:26:59.491Z,11.56
2023-01-07T11:29:34.957Z,11.62
2023-01-07T11:32:05.967Z,11.67
2023-01-07T11:34:47.580Z,11.71
2023-01-07T11:37:34.474Z,11.68
2023-01-07T11:40:05.010Z,11.73
2023-01-07T11:42:40.619Z,11.78
2023-01-07T11:45:22.801Z,11.78
2023-01-07T11:47:55.772Z,11.77
2023-01-07T11:50:30.594Z,11.68
2023-01-07T11:53:00.222Z,11.71
2023-01-07T11:55:27.195Z,11.68
2023-01-07T11:58:00.955Z,11.67
2023-01-07T12:00:43.456Z,11.69
2023-01-07T12:03:16.278Z,11.73
2023-01-07T12:05:46.660Z,11.79
2023-01-07T12:08:23.558Z,11.78
2023-01-07T12:10:58.429Z,11.84
2023-01-07T12:13:27.941Z,11.89
2023-01-07T12:16:06.066Z,11.87
2023-01-07T12:18:57.325Z,11.93
2023-01-07T12:21:33.951Z,11.97
2023-01-07T12:24:03.423Z,12.00
2023-01-07T12:26:40.999Z,11.99
2023-01-07T12:29:26.248Z,12.02
2023-01-07T12:32:19.189Z,12.13
2023-01-07T12:34:55.834Z,12.11
2023-01-07T12:37:37.277Z,12.05
2023-01-07T12:40:10.745Z,11.99
2023-01-07T12:42:40.959Z,11.99
2023-01-07T12:45:32.613Z,12.02
2023-01-07T12:48:04.291Z,12.04
2023-01-07T12:50:40.954Z,12.05
2023-01-07T12:53:19.258Z,12.02
2023-01-07T12:55:52.515Z,11.98
2023-01-07T12:58:57.757Z,11.83
2023-01-07T13:01:37.009Z,11.84
2023-01-07T13:04:06.373Z,11.88
2023-01-07T13:06:43.569Z,11.85
2023-01-07T13:09:21.918Z,11.86
2023-01-07T13:12:41.543Z,11.78
2023-01-07T13:15:20.830Z,11.72
2023-01-07T13:17:52.599Z,11.72
2023-01-07T13:20:47.181Z,11.68
2023-01-07T13:23:24.767Z,11.67
2023-01-07T13:26:12.116Z,11.67
2023-01-07T13:28:41.175Z,11.63
2023-01-07T13:31:45.363Z,11.58
2023-01-07T13:34:11.931Z,11.50
2023-01-07T13:37:11.567Z,11.42
2023-01-07T13:40:02.979Z,11.41
2023-01-07T13:42:53.523Z,11.34
2023-01-07T13:45:24.841Z,11.32
2023-01-07T13:47:59.153Z,11.30
2023-01-07T13:50:34.663Z,11.32
2023-01-07T13:53:27.200Z,11.27
2023-01-07T13:56:20.379Z,11.28
2023-01-07T13:58:47.790Z,11.29
2023-01-07T14:01:22.328Z,11.17
2023-01-07T14:03:53.793Z,11.07
2023-01-07T14:06:20.285Z,11.01
2023-01-07T14:08:52.572Z,10.96
2023-01-07T14:11:42.053Z,10.82
2023-01-07T14:14:21.401Z,10.80
2023-01-07T14:17:21.645Z,10.80
2023-01-07T14:20:13.768Z,10.74
2023-01-07T14:23:16.472Z,10.73
2023-01-07T14:25:45.745Z,10.69
2023-01-07T14:28:39.386Z,10.60
2023-01-07T14:31:19.632Z,10.58
2023-01-07T14:33:58.191Z,10.48
2023-01-07T14:37:04.847Z,10.44
2023-01-07T14:39:34.172Z,10.37
2023-01-07T14:42:19.121Z,10.35
2023-01-07T14:44:50.109Z,10.32
2023-01-07T14:47:44.749Z,10.19
2023-01-07T14:50:28.255Z,10.31
2023-01-07T14:53:16.899Z,10.35
2023-01-07T14:56:13.090Z,10.37
2023-01-07T14:58:56.443Z,10.35
2023-01-07T15:01:35.972Z,10.38
2023-01-07T15:04:21.101Z,10.38
2023-01-07T15:06:50.622Z,10.38
2023-01-07T15:09:41.712Z,10.41
2023-01-07T15:12:36.374Z,10.29
2023-01-07T15:15:34.287Z,10.24
2023-01-07T15:18:00.909Z,10.26
2023-01-07T15:20:45.330Z,10.22
2023-01-07T15:23:19.197Z,10.23
2023-01-07T15:25:58.561Z,10.14
2023-01-07T15:28:40.493Z,9.96
2023-01-07T15:31:21.285Z,10.09
2023-01-07T15:34:14.518Z,10.04
2023-01-07T15:36:46.003Z,10.03
2023-01-07T15:39:25.628Z,9.87
2023-01-07T15:41:58.680Z,9.81
2023-01-07T15:44:29.027Z,9.81
2023-01-07T15:46:55.653Z,9.66
2023-01-07T15:49:28.676Z,9.59
2023-01-07T15:52:00.507Z,9.40
2023-01-07T15:54:31.208Z,9.41
2023-01-07T15:57:01.593Z,9.30
2023-01-07T15:59:33.162Z,9.20
2023-01-07T16:02:29.105Z,9.13
2023-01-07T16:05:03.732Z,9.05
2023-01-07T16:07:50.336Z,8.97
2023-01-07T16:10:26.380Z,8.93
2023-01-07T16:12:58.566Z,8.90
2023-01-07T16:15:30.961Z,8.87
2023-01-07T16:18:00.375Z,8.79
2023-01-07T16:20:38.822Z,8.68
2023-01-07T16:23:10.626Z,8.59
2023-01-07T16:25:42.874Z,8.52
2023-01-07T16:28:14.588Z,8.41
2023-01-07T16:30:42.992Z,8.55
2023-01-07T16:33:18.213Z,8.57
2023-01-07T16:35:47.388Z,8.45
2023-01-07T16:38:16.202Z,8.31
2023-01-07T16:40:44.554Z,8.30
2023-01-07T16:43:46.263Z,8.25
2023-01-07T16:46:24.973Z,8.33
2023-01-07T16:49:09.525Z,8.19
2023-01-07T16:51:49.998Z,8.33
2023-01-07T16:54:28.648Z,8.23
2023-01-07T16:57:02.405Z,8.31
2023-01-07T16:59:34.915Z,8.26
2023-01-07T17:02:27.981Z,8.24
2023-01-07T17:04:58.119Z,8.30
2023-01-07T17:07:30.596Z,8.25
2023-01-07T17:09:58.516Z,8.19
2023-01-07T17:12:29.995Z,8.24
2023-01-07T17:14:56.390Z,8.36
2023-01-07T17:17:43.917Z,8.31
2023-01-07T17:20:22.524Z,8.40
2023-01-07T17:22:49.897Z,8.35
2023-01-07T17:25:25.971Z,8.51
2023-01-07T17:28:02.671Z,8.62
2023-01-07T17:30:38.499Z,8.60
2023-01-07T17:33:05.011Z,8.52
2023-01-07T17:35:31.480Z,8.54
2023-01-07T17:37:57.888Z,8.66
2023-01-07T17:40:24.354Z,8.76
2023-01-07T17:43:09.836Z,8.53
2023-01-07T17:45:37.036Z,8.49
2023-01-07T17:48:13.733Z,8.48
2023-01-07T17:50:42.246Z,8.66
2023-01-07T17:53:30.326Z,8.55
2023-01-07T17:55:57.798Z,8.58
2023-01-07T17:58:32.303Z,8.59
2023-01-07T18:01:00.937Z,8.59
2023-01-07T18:03:28.185Z,8.55
2023-01-07T18:05:54.840Z,8.48
2023-01-07T18:08:21.688Z,8.46
2023-01-07T18:11:07.375Z,8.33
2023-01-07T18:13:33.796Z,8.29
2023-01-07T18:16:00.416Z,8.26
2023-01-07T18:18:29.995Z,8.20
2023-01-07T18:20:57.603Z,8.17
2023-01-07T18:23:25.112Z,8.13
2023-01-07T18:25:51.682Z,8.00
2023-01-07T18:28:19.352Z,7.89
2023-01-07T18:30:45.716Z,7.94
2023-01-07T18:33:12.624Z,7.93
2023-01-07T18:35:42.416Z,7.92
2023-01-07T18:38:18.568Z,7.81
2023-01-07T18:40:45.305Z,7.90
2023-01-07T18:43:16.824Z,7.84
2023-01-07T18:45:44.970Z,7.86
2023-01-07T18:48:13.487Z,7.88
2023-01-07T18:50:44.303Z,7.85
2023-01-07T18:53:16.114Z,7.88
2023-01-07T18:55:43.510Z,8.03
2023-01-07T18:58:13.736Z,7.96
2023-01-07T19:00:41.199Z,8.00
2023-01-07T19:03:07.637Z,7.99
2023-01-07T19:05:34.121Z,7.97
2023-01-07T19:08:00.462Z,8.05
2023-01-07T19:10:27.998Z,7.96
2023-01-07T19:12:54.559Z,7.98
2023-01-07T19:15:21.035Z,7.92
2023-01-07T19:17:47.488Z,7.91
2023-01-07T19:20:15.334Z,7.95
2023-01-07T19:22:42.058Z,7.82
2023-01-07T19:25:11.458Z,7.95
2023-01-07T19:27:37.870Z,7.82
2023-01-07T19:30:12.078Z,7.83
2023-01-07T19:32:38.553Z,7.89
2023-01-07T19:35:08.041Z,7.88
2023-01-07T19:37:37.439Z,7.86
2023-01-07T19:40:05.308Z,7.97
2023-01-07T19:42:32.863Z,7.94
2023-01-07T19:45:03.575Z,8.04
2023-01-07T19:47:30.003Z,7.98
2023-01-07T19:49:56.428Z,8.01
2023-01-07T19:52:23.212Z,7.97
2023-01-07T19:54:52.465Z,7.80
2023-01-07T19:57:18.903Z,7.77
2023-01-07T19:59:46.485Z,7.86
2023-01-07T20:02:14.423Z,7.89
2023-01-07T20:04:42.747Z,7.96
2023-01-07T20:07:10.599Z,7.88
2023-01-07T20:09:37.052Z,7.77
2023-01-07T20:12:03.798Z,7.80
2023-01-07T20:14:30.214Z,7.78
2023-01-07T20:16:56.709Z,7.70
2023-01-07T20:19:23.391Z,7.99
2023-01-07T20:21:50.813Z,7.94
2023-01-07T20:24:17.202Z,8.05
2023-01-07T20:26:43.615Z,7.92
2023-01-07T20:29:12.319Z,7.89
2023-01-07T20:31:38.805Z,7.81
2023-01-07T20:34:05.231Z,7.78
2023-01-07T20:36:34.471Z,7.76
2023-01-07T20:39:05.865Z,7.76
2023-01-07T20:41:35.212Z,7.72
2023-01-07T20:44:03.330Z,7.74
2023-01-07T20:46:31.093Z,7.78
2023-01-07T20:48:59.327Z,7.64
2023-01-07T20:51:25.813Z,7.54
2023-01-07T20:53:52.440Z,7.50
2023-01-07T20:56:22.502Z,7.54
2023-01-07T20:58:49.840Z,7.66
2023-01-07T21:01:19.696Z,7.58
2023-01-07T21:03:52.973Z,7.49
2023-01-07T21:06:22.831Z,7.70
2023-01-07T21:08:52.192Z,7.70
2023-01-07T21:11:25.781Z,7.64
2023-01-07T21:14:05.358Z,7.68
2023-01-07T21:16:32.453Z,7.77
2023-01-07T21:18:58.881Z,7.70
2023-01-07T21:21:25.720Z,7.71
2023-01-07T21:23:53.423Z,7.78
2023-01-07T21:26:20.980Z,7.76
2023-01-07T21:28:47.374Z,7.69
2023-01-07T21:31:15.693Z,7.64
2023-01-07T21:33:46.326Z,7.71
2023-01-07T21:36:18.400Z,7.64
2023-01-07T21:38:49.273Z,7.69
2023-01-07T21:41:17.066Z,7.62
2023-01-07T21:43:44.423Z,7.56
2023-01-07T21:46:18.072Z,7.52
2023-01-07T21:48:46.987Z,7.54
2023-01-07T21:51:25.871Z,7.54
2023-01-07T21:53:56.330Z,7.57
2023-01-07T21:56:27.081Z,7.52
2023-01-07T21:58:53.662Z,7.40
2023-01-07T22:01:20.131Z,7.42
2023-01-07T22:03:49.966Z,7.40
2023-01-07T22:06:22.025Z,7.32
2023-01-07T22:08:55.986Z,7.40
2023-01-07T22:11:22.616Z,7.40
2023-01-07T22:13:50.879Z,7.48
2023-01-07T22:16:17.852Z,7.52
2023-01-07T22:18:44.327Z,7.62
2023-01-07T22:21:10.811Z,7.68
2023-01-07T22:23:44.286Z,7.80
2023-01-07T22:26:10.797Z,7.78
2023-01-07T22:28:38.590Z,7.80
2023-01-07T22:31:21.581Z,7.84
2023-01-07T22:33:48.522Z,7.83
2023-01-07T22:36:21.663Z,7.85
2023-01-07T22:38:49.450Z,7.82
2023-01-07T22:41:18.147Z,7.77
2023-01-07T22:43:44.812Z,7.88
2023-01-07T22:46:19.731Z,7.80
2023-01-07T22:48:46.102Z,7.79
2023-01-07T22:51:20.895Z,7.78
2023-01-07T22:53:56.174Z,7.78
2023-01-07T22:56:23.475Z,7.82
2023-01-07T22:58:50.075Z,7.85
2023-01-07T23:01:19.504Z,7.87
2023-01-07T23:03:46.227Z,7.92
2023-01-07T23:06:15.057Z,7.89
2023-01-07T23:08:42.103Z,7.86
2023-01-07T23:11:11.134Z,7.90
2023-01-07T23:13:38.127Z,7.88
2023-01-07T23:16:06.631Z,7.86
2023-01-07T23:18:33.219Z,7.88
2023-01-07T23:20:59.674Z,7.90
2023-01-07T23:23:26.053Z,7.92
2023-01-07T23:25:52.528Z,7.92
2023-01-07T23:28:19.494Z,7.93
2023-01-07T23:30:45.964Z,7.94
2023-01-07T23:33:12.393Z,7.96
2023-01-07T23:35:38.753Z,7.96
2023-01-07T23:38:05.355Z,8.08
2023-01-07T23:40:31.937Z,8.06
2023-01-07T23:42:58.404Z,8.08
2023-01-07T23:45:24.794Z,8.13
2023-01-07T23:47:51.223Z,8.18
2023-01-07T23:50:17.815Z,8.21
2023-01-07T23:52:44.187Z,8.25
2023-01-07T23:55:10.826Z,8.35
2023-01-07T23:57:39.559Z,8.33
